<?xml version="1.0" encoding="ISO-8859-1" standalone="yes"?>
<gpx
  version="1.1"
  creator="Touratech QV 4.0.43 Power User - http://www.ttqv.com"
  xmlns:xsi="http://www.w3.org/2001/XMLSchema-instance"  xmlns:topografix="http://www.topografix.com/GPX/Private/TopoGrafix/0/1"
  xmlns="http://www.topografix.com/GPX/1/1"
  xsi:schemaLocation="http://www.topografix.com/GPX/1/1 http://www.topografix.com/GPX/1/1/gpx.xsd">
<metadata>
  <time>2006-05-18T09:10:52Z</time>
  <bounds minlat="47.7727569546551" minlon="7.577473" maxlat="48.0963556654751" maxlon="8.16985040903091"/>
</metadata>
<rte>
  <name>SKK</name>
  <rtept  lat="48.061142" lon="7.815971">
    <name>SKK_01</name>
    <sym>18</sym>
  </rtept>
  <rtept  lat="48.04945" lon="7.858414">
    <name>SKK_02</name>
    <sym>18</sym>
  </rtept>
  <rtept  lat="48.09526" lon="7.978136">
    <name>SKK_03</name>
    <sym>18</sym>
  </rtept>
  <rtept  lat="48.020331" lon="8.040265">
    <name>SKK_04</name>
    <sym>18</sym>
  </rtept>
  <rtept  lat="48.007874" lon="8.09325">
    <name>SKK_05</name>
    <sym>18</sym>
  </rtept>
  <rtept  lat="47.972108" lon="8.123548">
    <name>SKK_06</name>
    <sym>18</sym>
  </rtept>
  <rtept  lat="47.91231" lon="8.097599">
    <name>SKK_07</name>
    <sym>18</sym>
  </rtept>
  <rtept  lat="47.907418" lon="8.169436">
    <name>SKK_08</name>
    <sym>18</sym>
  </rtept>
  <rtept  lat="47.857014" lon="8.04348">
    <name>SKK_09</name>
    <sym>18</sym>
  </rtept>
  <rtept  lat="47.827602" lon="7.942088">
    <name>SKK_10</name>
    <sym>18</sym>
  </rtept>
  <rtept  lat="47.876546" lon="7.908136">
    <name>SKK_11</name>
    <sym>18</sym>
  </rtept>
  <rtept  lat="47.901051" lon="7.885562">
    <name>SKK_12</name>
    <sym>18</sym>
  </rtept>
  <rtept  lat="47.900049" lon="7.869309">
    <name>SKK_13</name>
    <sym>18</sym>
  </rtept>
  <rtept  lat="47.883052" lon="7.845925">
    <name>SKK_14</name>
    <sym>18</sym>
  </rtept>
  <rtept  lat="47.844222" lon="7.866622">
    <name>SKK_15</name>
    <sym>18</sym>
  </rtept>
  <rtept  lat="47.797801" lon="7.905003">
    <name>SKK_16</name>
    <sym>18</sym>
  </rtept>
  <rtept  lat="47.773295" lon="7.887447">
    <name>SKK_17</name>
    <sym>18</sym>
  </rtept>
  <rtept  lat="47.794964" lon="7.826742">
    <name>SKK_18</name>
    <sym>18</sym>
  </rtept>
  <rtept  lat="47.85458" lon="7.782657">
    <name>SKK_19</name>
    <sym>18</sym>
  </rtept>
  <rtept  lat="47.982213" lon="7.645001">
    <name>SKK_20</name>
    <sym>18</sym>
  </rtept>
  <rtept  lat="48.02635" lon="7.58792">
    <name>SKK_21</name>
    <sym>18</sym>
  </rtept>
  <rtept  lat="48.029072" lon="7.582639">
    <name>SKK_22</name>
    <sym>18</sym>
  </rtept>
  <rtept  lat="48.043836" lon="7.581339">
    <name>SKK_23</name>
    <sym>18</sym>
  </rtept>
  <rtept  lat="48.045157" lon="7.587577">
    <name>SKK_24</name>
    <sym>18</sym>
  </rtept>
  <rtept  lat="48.085304" lon="7.602504">
    <name>SKK_25</name>
    <sym>18</sym>
  </rtept>
  <rtept  lat="48.095132" lon="7.663817">
    <name>SKK_26</name>
    <sym>18</sym>
  </rtept>
  <rtept  lat="48.07683" lon="7.726248">
    <name>SKK_27</name>
    <sym>18</sym>
  </rtept>
  <rtept  lat="48.069088" lon="7.798596">
    <name>SKK_28</name>
    <sym>18</sym>
  </rtept>
  <rtept  lat="48.061364" lon="7.809863">
    <name>SKK_29</name>
    <sym>18</sym>
  </rtept>
</rte>
<rte>
  <name>SKS</name>
  <rtept  lat="48.061097" lon="7.816247">
    <name>SKS_01</name>
    <sym>18</sym>
  </rtept>
  <rtept  lat="48.094871" lon="7.978439">
    <name>SKS_02</name>
    <sym>18</sym>
  </rtept>
  <rtept  lat="48.02479" lon="8.028509">
    <name>SKS_03</name>
    <sym>18</sym>
  </rtept>
  <rtept  lat="47.989726" lon="8.117615">
    <name>SKS_04</name>
    <sym>18</sym>
  </rtept>
  <rtept  lat="47.89635" lon="8.158113">
    <name>SKS_05</name>
    <sym>18</sym>
  </rtept>
  <rtept  lat="47.829189" lon="7.940854">
    <name>SKS_06</name>
    <sym>18</sym>
  </rtept>
  <rtept  lat="47.89893" lon="7.876071">
    <name>SKS_07</name>
    <sym>18</sym>
  </rtept>
  <rtept  lat="47.85173" lon="7.863578">
    <name>SKS_08</name>
    <sym>18</sym>
  </rtept>
  <rtept  lat="47.816959" lon="7.862003">
    <name>SKS_09</name>
    <sym>18</sym>
  </rtept>
  <rtept  lat="47.772799" lon="7.880348">
    <name>SKS_10</name>
    <sym>18</sym>
  </rtept>
  <rtept  lat="47.802869" lon="7.828419">
    <name>SKS_11</name>
    <sym>18</sym>
  </rtept>
  <rtept  lat="47.804856" lon="7.786206">
    <name>SKS_12</name>
    <sym>18</sym>
  </rtept>
  <rtept  lat="47.926487" lon="7.69681">
    <name>SKS_13</name>
    <sym>18</sym>
  </rtept>
  <rtept  lat="48.035078" lon="7.580119">
    <name>SKS_14</name>
    <sym>18</sym>
  </rtept>
  <rtept  lat="48.086738" lon="7.616473">
    <name>SKS_15</name>
    <sym>18</sym>
  </rtept>
  <rtept  lat="48.061385" lon="7.809931">
    <name>SKS_16</name>
    <sym>18</sym>
  </rtept>
</rte>
<trk>
  <name>SK</name>
  <trkseg>
    <trkpt lat="48.061097" lon="7.816247">
    <ele>208</ele>
    <time>1989-12-30T23:59:59Z</time>
    </trkpt>
    <trkpt lat="48.0494384653866" lon="7.85468330606818">
    <ele>220</ele>
    <time>1989-12-31T00:04:13Z</time>
    </trkpt>
    <trkpt lat="48.0480159725994" lon="7.85848156549037">
    <ele>226</ele>
    <time>1989-12-31T00:04:36Z</time>
    </trkpt>
    <trkpt lat="48.0472186859697" lon="7.85910006612539">
    <ele>225</ele>
    <time>1989-12-31T00:04:43Z</time>
    </trkpt>
    <trkpt lat="48.0462598800659" lon="7.85878658294678">
    <ele>223</ele>
    <time>1989-12-31T00:04:51Z</time>
    </trkpt>
    <trkpt lat="48.0462089180946" lon="7.85743835382164">
    <ele>220</ele>
    <time>1989-12-31T00:04:58Z</time>
    </trkpt>
    <trkpt lat="48.0470323562622" lon="7.85719871520996">
    <ele>221</ele>
    <time>1989-12-31T00:05:05Z</time>
    </trkpt>
    <trkpt lat="48.0492319352925" lon="7.85836656577885">
    <ele>222</ele>
    <time>1989-12-31T00:05:24Z</time>
    </trkpt>
    <trkpt lat="48.0582776013762" lon="7.87286549806595">
    <ele>233</ele>
    <time>1989-12-31T00:07:10Z</time>
    </trkpt>
    <trkpt lat="48.0590405222028" lon="7.8760558180511">
    <ele>240</ele>
    <time>1989-12-31T00:07:28Z</time>
    </trkpt>
    <trkpt lat="48.059498006478" lon="7.89076002314687">
    <ele>249</ele>
    <time>1989-12-31T00:08:47Z</time>
    </trkpt>
    <trkpt lat="48.0613657459617" lon="7.89852987974882">
    <ele>252</ele>
    <time>1989-12-31T00:09:32Z</time>
    </trkpt>
    <trkpt lat="48.0836391448975" lon="7.94504642486572">
    <ele>256</ele>
    <time>1989-12-31T00:14:38Z</time>
    </trkpt>
    <trkpt lat="48.0958132725209" lon="7.97677771188319">
    <ele>308</ele>
    <time>1989-12-31T00:17:54Z</time>
    </trkpt>
    <trkpt lat="48.0956554412842" lon="7.97803357243538">
    <ele>312</ele>
    <time>1989-12-31T00:18:01Z</time>
    </trkpt>
    <trkpt lat="48.094013845548" lon="7.97917854040861">
    <ele>316</ele>
    <time>1989-12-31T00:18:16Z</time>
    </trkpt>
    <trkpt lat="48.0924010835588" lon="7.98552934080362">
    <ele>346</ele>
    <time>1989-12-31T00:18:52Z</time>
    </trkpt>
    <trkpt lat="48.0759602319449" lon="7.99467894248664">
    <ele>615</ele>
    <time>1989-12-31T00:21:13Z</time>
    </trkpt>
    <trkpt lat="48.0820053443313" lon="7.99805659800768">
    <ele>618</ele>
    <time>1989-12-31T00:22:04Z</time>
    </trkpt>
    <trkpt lat="48.0839441623539" lon="7.9974976927042">
    <ele>629</ele>
    <time>1989-12-31T00:22:20Z</time>
    </trkpt>
    <trkpt lat="48.0677481461316" lon="8.00743611529469">
    <ele>853</ele>
    <time>1989-12-31T00:24:40Z</time>
    </trkpt>
    <trkpt lat="48.0670287273824" lon="8.00521926954389">
    <ele>941</ele>
    <time>1989-12-31T00:24:54Z</time>
    </trkpt>
    <trkpt lat="48.0671601556242" lon="8.0098929349333">
    <ele>945</ele>
    <time>1989-12-31T00:25:19Z</time>
    </trkpt>
    <trkpt lat="48.0685461033136" lon="8.01047740504146">
    <ele>947</ele>
    <time>1989-12-31T00:25:30Z</time>
    </trkpt>
    <trkpt lat="48.0740832723677" lon="8.00837036222219">
    <ele>969</ele>
    <time>1989-12-31T00:26:16Z</time>
    </trkpt>
    <trkpt lat="48.0707870889455" lon="8.01401322707534">
    <ele>995</ele>
    <time>1989-12-31T00:26:56Z</time>
    </trkpt>
    <trkpt lat="48.0717602279037" lon="8.01337955519557">
    <ele>995</ele>
    <time>1989-12-31T00:27:05Z</time>
    </trkpt>
    <trkpt lat="48.0607175733894" lon="8.0181890912354">
    <ele>1178</ele>
    <time>1989-12-31T00:28:37Z</time>
    </trkpt>
    <trkpt lat="48.0600091349334" lon="8.01918142475188">
    <ele>1173</ele>
    <time>1989-12-31T00:28:44Z</time>
    </trkpt>
    <trkpt lat="48.0594985093921" lon="8.0218224786222">
    <ele>1160</ele>
    <time>1989-12-31T00:28:59Z</time>
    </trkpt>
    <trkpt lat="48.0594622157514" lon="8.04287672974169">
    <ele>1097</ele>
    <time>1989-12-31T00:30:52Z</time>
    </trkpt>
    <trkpt lat="48.0585055891424" lon="8.04420383647084">
    <ele>1089</ele>
    <time>1989-12-31T00:31:03Z</time>
    </trkpt>
    <trkpt lat="48.0512082204223" lon="8.04823268204927">
    <ele>1074</ele>
    <time>1989-12-31T00:32:05Z</time>
    </trkpt>
    <trkpt lat="48.0506738740951" lon="8.04938301444054">
    <ele>1068</ele>
    <time>1989-12-31T00:32:12Z</time>
    </trkpt>
    <trkpt lat="48.0492639541626" lon="8.04709911346436">
    <ele>1057</ele>
    <time>1989-12-31T00:32:29Z</time>
    </trkpt>
    <trkpt lat="48.0484824255109" lon="8.04272904060781">
    <ele>1054</ele>
    <time>1989-12-31T00:32:53Z</time>
    </trkpt>
    <trkpt lat="48.0459621548653" lon="8.04356136359274">
    <ele>1052</ele>
    <time>1989-12-31T00:33:14Z</time>
    </trkpt>
    <trkpt lat="48.043512" lon="8.047378">
    <ele>1050</ele>
    <time>1989-12-31T00:33:42Z</time>
    </trkpt>
    <trkpt lat="48.0421282723546" lon="8.0428109318018">
    <ele>812</ele>
    <time>1989-12-31T00:34:09Z</time>
    </trkpt>
    <trkpt lat="48.0402732733637" lon="8.04204801097512">
    <ele>804</ele>
    <time>1989-12-31T00:34:25Z</time>
    </trkpt>
    <trkpt lat="48.0375080835074" lon="8.03834170103073">
    <ele>780</ele>
    <time>1989-12-31T00:34:55Z</time>
    </trkpt>
    <trkpt lat="48.0367224477232" lon="8.03390407003462">
    <ele>770</ele>
    <time>1989-12-31T00:35:19Z</time>
    </trkpt>
    <trkpt lat="48.0330540239811" lon="8.0252624116838">
    <ele>753</ele>
    <time>1989-12-31T00:36:14Z</time>
    </trkpt>
    <trkpt lat="48.0288791656494" lon="8.02504062652588">
    <ele>735</ele>
    <time>1989-12-31T00:36:48Z</time>
    </trkpt>
    <trkpt lat="48.0269861128181" lon="8.02801896817982">
    <ele>702</ele>
    <time>1989-12-31T00:37:10Z</time>
    </trkpt>
    <trkpt lat="48.0260858964175" lon="8.02817730233073">
    <ele>702</ele>
    <time>1989-12-31T00:37:17Z</time>
    </trkpt>
    <trkpt lat="48.024734146893" lon="8.02904575131834">
    <ele>710</ele>
    <time>1989-12-31T00:37:29Z</time>
    </trkpt>
    <trkpt lat="48.0250234901905" lon="8.03190280683339">
    <ele>720</ele>
    <time>1989-12-31T00:37:44Z</time>
    </trkpt>
    <trkpt lat="48.0241912510246" lon="8.03172770887613">
    <ele>728</ele>
    <time>1989-12-31T00:37:51Z</time>
    </trkpt>
    <trkpt lat="48.0238237045705" lon="8.0303842574358">
    <ele>736</ele>
    <time>1989-12-31T00:37:59Z</time>
    </trkpt>
    <trkpt lat="48.0230285972357" lon="8.02976131439209">
    <ele>743</ele>
    <time>1989-12-31T00:38:06Z</time>
    </trkpt>
    <trkpt lat="48.0207233224064" lon="8.03545287810266">
    <ele>737</ele>
    <time>1989-12-31T00:38:42Z</time>
    </trkpt>
    <trkpt lat="48.0196652747691" lon="8.04563504643738">
    <ele>753</ele>
    <time>1989-12-31T00:39:37Z</time>
    </trkpt>
    <trkpt lat="48.0210461094975" lon="8.04919056594372">
    <ele>761</ele>
    <time>1989-12-31T00:39:59Z</time>
    </trkpt>
    <trkpt lat="48.0206597875804" lon="8.05189649574459">
    <ele>764</ele>
    <time>1989-12-31T00:40:14Z</time>
    </trkpt>
    <trkpt lat="48.019361095503" lon="8.05387864820659">
    <ele>771</ele>
    <time>1989-12-31T00:40:29Z</time>
    </trkpt>
    <trkpt lat="48.0185066442937" lon="8.05644820444286">
    <ele>774</ele>
    <time>1989-12-31T00:40:44Z</time>
    </trkpt>
    <trkpt lat="48.0184421036392" lon="8.05789601057768">
    <ele>778</ele>
    <time>1989-12-31T00:40:52Z</time>
    </trkpt>
    <trkpt lat="48.0228570196778" lon="8.05948127992451">
    <ele>786</ele>
    <time>1989-12-31T00:41:28Z</time>
    </trkpt>
    <trkpt lat="48.022582679987" lon="8.0608769506216">
    <ele>790</ele>
    <time>1989-12-31T00:41:36Z</time>
    </trkpt>
    <trkpt lat="48.0219449847937" lon="8.06197933852673">
    <ele>794</ele>
    <time>1989-12-31T00:41:44Z</time>
    </trkpt>
    <trkpt lat="48.0206628050655" lon="8.06878066621721">
    <ele>819</ele>
    <time>1989-12-31T00:42:22Z</time>
    </trkpt>
    <trkpt lat="48.0196553003043" lon="8.07071411982179">
    <ele>823</ele>
    <time>1989-12-31T00:42:35Z</time>
    </trkpt>
    <trkpt lat="48.019710117951" lon="8.07205053046346">
    <ele>822</ele>
    <time>1989-12-31T00:42:42Z</time>
    </trkpt>
    <trkpt lat="48.0201531853527" lon="8.07288176380098">
    <ele>822</ele>
    <time>1989-12-31T00:42:48Z</time>
    </trkpt>
    <trkpt lat="48.0198557116091" lon="8.07538099586964">
    <ele>820</ele>
    <time>1989-12-31T00:43:01Z</time>
    </trkpt>
    <trkpt lat="48.0192516278476" lon="8.07647516950965">
    <ele>819</ele>
    <time>1989-12-31T00:43:09Z</time>
    </trkpt>
    <trkpt lat="48.0204424448311" lon="8.07856435887516">
    <ele>823</ele>
    <time>1989-12-31T00:43:24Z</time>
    </trkpt>
    <trkpt lat="48.0206512380391" lon="8.08055019937456">
    <ele>831</ele>
    <time>1989-12-31T00:43:35Z</time>
    </trkpt>
    <trkpt lat="48.0196910072118" lon="8.08071909472346">
    <ele>836</ele>
    <time>1989-12-31T00:43:42Z</time>
    </trkpt>
    <trkpt lat="48.018903862685" lon="8.08161688037217">
    <ele>842</ele>
    <time>1989-12-31T00:43:50Z</time>
    </trkpt>
    <trkpt lat="48.0184006970376" lon="8.08444971218705">
    <ele>857</ele>
    <time>1989-12-31T00:44:06Z</time>
    </trkpt>
    <trkpt lat="48.0171798728406" lon="8.08671567589045">
    <ele>860</ele>
    <time>1989-12-31T00:44:22Z</time>
    </trkpt>
    <trkpt lat="48.0158494971693" lon="8.08585762046278">
    <ele>870</ele>
    <time>1989-12-31T00:44:33Z</time>
    </trkpt>
    <trkpt lat="48.0139650776982" lon="8.08590346947312">
    <ele>879</ele>
    <time>1989-12-31T00:44:48Z</time>
    </trkpt>
    <trkpt lat="48.0136228445917" lon="8.08718774467707">
    <ele>881</ele>
    <time>1989-12-31T00:44:56Z</time>
    </trkpt>
    <trkpt lat="48.0141390860081" lon="8.08993265032768">
    <ele>885</ele>
    <time>1989-12-31T00:45:11Z</time>
    </trkpt>
    <trkpt lat="48.0133332498372" lon="8.09052508324385">
    <ele>886</ele>
    <time>1989-12-31T00:45:18Z</time>
    </trkpt>
    <trkpt lat="48.0124036967754" lon="8.09002007357776">
    <ele>886</ele>
    <time>1989-12-31T00:45:26Z</time>
    </trkpt>
    <trkpt lat="48.0111480038613" lon="8.09194824658334">
    <ele>884</ele>
    <time>1989-12-31T00:45:41Z</time>
    </trkpt>
    <trkpt lat="48.0085186846554" lon="8.09328809380531">
    <ele>884</ele>
    <time>1989-12-31T00:46:03Z</time>
    </trkpt>
    <trkpt lat="48.0077822506428" lon="8.092978047207">
    <ele>888</ele>
    <time>1989-12-31T00:46:09Z</time>
    </trkpt>
    <trkpt lat="48.0084155872464" lon="8.09563946910203">
    <ele>894</ele>
    <time>1989-12-31T00:46:24Z</time>
    </trkpt>
    <trkpt lat="48.0101151857525" lon="8.09905107133091">
    <ele>902</ele>
    <time>1989-12-31T00:46:47Z</time>
    </trkpt>
    <trkpt lat="48.0109685473144" lon="8.09980619698763">
    <ele>905</ele>
    <time>1989-12-31T00:46:55Z</time>
    </trkpt>
    <trkpt lat="48.0120358988643" lon="8.10007307678461">
    <ele>907</ele>
    <time>1989-12-31T00:47:04Z</time>
    </trkpt>
    <trkpt lat="48.0126571655273" lon="8.10102886520326">
    <ele>910</ele>
    <time>1989-12-31T00:47:11Z</time>
    </trkpt>
    <trkpt lat="48.0121892876923" lon="8.1020834762603">
    <ele>912</ele>
    <time>1989-12-31T00:47:18Z</time>
    </trkpt>
    <trkpt lat="48.0112612433732" lon="8.10247499495745">
    <ele>915</ele>
    <time>1989-12-31T00:47:25Z</time>
    </trkpt>
    <trkpt lat="48.0096688494086" lon="8.10425975359976">
    <ele>918</ele>
    <time>1989-12-31T00:47:41Z</time>
    </trkpt>
    <trkpt lat="48.0077015329152" lon="8.1049694493413">
    <ele>924</ele>
    <time>1989-12-31T00:47:57Z</time>
    </trkpt>
    <trkpt lat="48.0013137683272" lon="8.11158285476267">
    <ele>941</ele>
    <time>1989-12-31T00:49:00Z</time>
    </trkpt>
    <trkpt lat="47.999476455152" lon="8.11070401221514">
    <ele>943</ele>
    <time>1989-12-31T00:49:15Z</time>
    </trkpt>
    <trkpt lat="47.9984585568309" lon="8.11080551706254">
    <ele>941</ele>
    <time>1989-12-31T00:49:23Z</time>
    </trkpt>
    <trkpt lat="47.997652888298" lon="8.11169601045549">
    <ele>937</ele>
    <time>1989-12-31T00:49:31Z</time>
    </trkpt>
    <trkpt lat="47.9958491865546" lon="8.11126811429858">
    <ele>934</ele>
    <time>1989-12-31T00:49:46Z</time>
    </trkpt>
    <trkpt lat="47.9943594709039" lon="8.11278657987714">
    <ele>934</ele>
    <time>1989-12-31T00:50:00Z</time>
    </trkpt>
    <trkpt lat="47.9919830337167" lon="8.11758002266288">
    <ele>934</ele>
    <time>1989-12-31T00:50:32Z</time>
    </trkpt>
    <trkpt lat="47.9910870082676" lon="8.11810833401978">
    <ele>932</ele>
    <time>1989-12-31T00:50:40Z</time>
    </trkpt>
    <trkpt lat="47.9883639793843" lon="8.11705640517175">
    <ele>945</ele>
    <time>1989-12-31T00:51:03Z</time>
    </trkpt>
    <trkpt lat="47.9863292723894" lon="8.11758211813867">
    <ele>955</ele>
    <time>1989-12-31T00:51:19Z</time>
    </trkpt>
    <trkpt lat="47.9854107834399" lon="8.11828611418605">
    <ele>960</ele>
    <time>1989-12-31T00:51:27Z</time>
    </trkpt>
    <trkpt lat="47.984829666093" lon="8.11962839215994">
    <ele>964</ele>
    <time>1989-12-31T00:51:36Z</time>
    </trkpt>
    <trkpt lat="47.9843357205391" lon="8.12223801389337">
    <ele>973</ele>
    <time>1989-12-31T00:51:51Z</time>
    </trkpt>
    <trkpt lat="47.980836359784" lon="8.12448528595269">
    <ele>985</ele>
    <time>1989-12-31T00:52:21Z</time>
    </trkpt>
    <trkpt lat="47.978079803288" lon="8.12446240335703">
    <ele>998</ele>
    <time>1989-12-31T00:52:43Z</time>
    </trkpt>
    <trkpt lat="47.9763456713408" lon="8.1259164121002">
    <ele>1002</ele>
    <time>1989-12-31T00:52:59Z</time>
    </trkpt>
    <trkpt lat="47.9734237398952" lon="8.12520202249289">
    <ele>1022</ele>
    <time>1989-12-31T00:53:23Z</time>
    </trkpt>
    <trkpt lat="47.9695568326861" lon="8.11436966992915">
    <ele>1014</ele>
    <time>1989-12-31T00:54:29Z</time>
    </trkpt>
    <trkpt lat="47.9698356986046" lon="8.1115900631994">
    <ele>1010</ele>
    <time>1989-12-31T00:54:44Z</time>
    </trkpt>
    <trkpt lat="47.9683315660805" lon="8.10959408059716">
    <ele>1014</ele>
    <time>1989-12-31T00:55:00Z</time>
    </trkpt>
    <trkpt lat="47.967717172578" lon="8.10691807419062">
    <ele>1021</ele>
    <time>1989-12-31T00:55:15Z</time>
    </trkpt>
    <trkpt lat="47.9671656433493" lon="8.10593479312956">
    <ele>1022</ele>
    <time>1989-12-31T00:55:22Z</time>
    </trkpt>
    <trkpt lat="47.9662488307804" lon="8.10580730438232">
    <ele>1022</ele>
    <time>1989-12-31T00:55:29Z</time>
    </trkpt>
    <trkpt lat="47.9645816702396" lon="8.10418968088925">
    <ele>1022</ele>
    <time>1989-12-31T00:55:45Z</time>
    </trkpt>
    <trkpt lat="47.9625993501395" lon="8.10422706417739">
    <ele>1022</ele>
    <time>1989-12-31T00:56:01Z</time>
    </trkpt>
    <trkpt lat="47.9608788806945" lon="8.10281454585493">
    <ele>1029</ele>
    <time>1989-12-31T00:56:17Z</time>
    </trkpt>
    <trkpt lat="47.958911312744" lon="8.10226779431105">
    <ele>1033</ele>
    <time>1989-12-31T00:56:33Z</time>
    </trkpt>
    <trkpt lat="47.958572851494" lon="8.10090959072113">
    <ele>1033</ele>
    <time>1989-12-31T00:56:41Z</time>
    </trkpt>
    <trkpt lat="47.9587264079601" lon="8.099569324404">
    <ele>1035</ele>
    <time>1989-12-31T00:56:48Z</time>
    </trkpt>
    <trkpt lat="47.9546266514808" lon="8.09838496148586">
    <ele>1038</ele>
    <time>1989-12-31T00:57:22Z</time>
    </trkpt>
    <trkpt lat="47.9514021333307" lon="8.09408982284367">
    <ele>1026</ele>
    <time>1989-12-31T00:57:56Z</time>
    </trkpt>
    <trkpt lat="47.94553572312" lon="8.09081216342747">
    <ele>996</ele>
    <time>1989-12-31T00:58:46Z</time>
    </trkpt>
    <trkpt lat="47.944468203932" lon="8.09108516201377">
    <ele>994</ele>
    <time>1989-12-31T00:58:55Z</time>
    </trkpt>
    <trkpt lat="47.9421086143702" lon="8.09367056004703">
    <ele>990</ele>
    <time>1989-12-31T00:59:19Z</time>
    </trkpt>
    <trkpt lat="47.9288005828857" lon="8.09795379638672">
    <ele>943</ele>
    <time>1989-12-31T01:01:08Z</time>
    </trkpt>
    <trkpt lat="47.9277082532644" lon="8.09773871675134">
    <ele>941</ele>
    <time>1989-12-31T01:01:16Z</time>
    </trkpt>
    <trkpt lat="47.9253244400024" lon="8.09533596038818">
    <ele>940</ele>
    <time>1989-12-31T01:01:39Z</time>
    </trkpt>
    <trkpt lat="47.9242298472673" lon="8.09482097625732">
    <ele>939</ele>
    <time>1989-12-31T01:01:49Z</time>
    </trkpt>
    <trkpt lat="47.9193153697997" lon="8.09431253001094">
    <ele>923</ele>
    <time>1989-12-31T01:02:28Z</time>
    </trkpt>
    <trkpt lat="47.9120899178088" lon="8.09868151322007">
    <ele>888</ele>
    <time>1989-12-31T01:03:30Z</time>
    </trkpt>
    <trkpt lat="47.9124868009239" lon="8.09768901206553">
    <ele>889</ele>
    <time>1989-12-31T01:03:37Z</time>
    </trkpt>
    <trkpt lat="47.91274596937" lon="8.09859316796064">
    <ele>893</ele>
    <time>1989-12-31T01:03:42Z</time>
    </trkpt>
    <trkpt lat="47.912188405171" lon="8.10147612355649">
    <ele>897</ele>
    <time>1989-12-31T01:03:58Z</time>
    </trkpt>
    <trkpt lat="47.9117192700505" lon="8.11002742499113">
    <ele>910</ele>
    <time>1989-12-31T01:04:44Z</time>
    </trkpt>
    <trkpt lat="47.9059281293303" lon="8.1238510273397">
    <ele>889</ele>
    <time>1989-12-31T01:06:12Z</time>
    </trkpt>
    <trkpt lat="47.9051993228495" lon="8.12777887098491">
    <ele>884</ele>
    <time>1989-12-31T01:06:34Z</time>
    </trkpt>
    <trkpt lat="47.9097219463438" lon="8.15692149102688">
    <ele>850</ele>
    <time>1989-12-31T01:09:15Z</time>
    </trkpt>
    <trkpt lat="47.9081153869629" lon="8.16792676225305">
    <ele>845</ele>
    <time>1989-12-31T01:10:15Z</time>
    </trkpt>
    <trkpt lat="47.9077416379005" lon="8.16931270994246">
    <ele>849</ele>
    <time>1989-12-31T01:10:24Z</time>
    </trkpt>
    <trkpt lat="47.9068813193589" lon="8.16985040903091">
    <ele>849</ele>
    <time>1989-12-31T01:10:31Z</time>
    </trkpt>
    <trkpt lat="47.9058645945042" lon="8.16972384229302">
    <ele>849</ele>
    <time>1989-12-31T01:10:39Z</time>
    </trkpt>
    <trkpt lat="47.9049645457417" lon="8.16911187954247">
    <ele>849</ele>
    <time>1989-12-31T01:10:47Z</time>
    </trkpt>
    <trkpt lat="47.8872149437666" lon="8.14512337557971">
    <ele>910</ele>
    <time>1989-12-31T01:13:59Z</time>
    </trkpt>
    <trkpt lat="47.8847584594041" lon="8.1406500376761">
    <ele>924</ele>
    <time>1989-12-31T01:14:30Z</time>
    </trkpt>
    <trkpt lat="47.8835547342896" lon="8.13473409041762">
    <ele>948</ele>
    <time>1989-12-31T01:15:03Z</time>
    </trkpt>
    <trkpt lat="47.8789995890111" lon="8.12794332392514">
    <ele>950</ele>
    <time>1989-12-31T01:15:55Z</time>
    </trkpt>
    <trkpt lat="47.8791904449463" lon="8.12644958496094">
    <ele>954</ele>
    <time>1989-12-31T01:16:03Z</time>
    </trkpt>
    <trkpt lat="47.8807122632861" lon="8.12518534250557">
    <ele>958</ele>
    <time>1989-12-31T01:16:17Z</time>
    </trkpt>
    <trkpt lat="47.8808997664601" lon="8.12273757532239">
    <ele>960</ele>
    <time>1989-12-31T01:16:31Z</time>
    </trkpt>
    <trkpt lat="47.8737255278975" lon="8.10735770501196">
    <ele>971</ele>
    <time>1989-12-31T01:18:11Z</time>
    </trkpt>
    <trkpt lat="47.8728984855115" lon="8.10155130922794">
    <ele>973</ele>
    <time>1989-12-31T01:18:43Z</time>
    </trkpt>
    <trkpt lat="47.87154388614" lon="8.09917017817497">
    <ele>973</ele>
    <time>1989-12-31T01:19:00Z</time>
    </trkpt>
    <trkpt lat="47.8700628038496" lon="8.09807365760207">
    <ele>973</ele>
    <time>1989-12-31T01:19:13Z</time>
    </trkpt>
    <trkpt lat="47.8696629032493" lon="8.09694344177842">
    <ele>974</ele>
    <time>1989-12-31T01:19:20Z</time>
    </trkpt>
    <trkpt lat="47.8704756125808" lon="8.09099949896336">
    <ele>994</ele>
    <time>1989-12-31T01:19:53Z</time>
    </trkpt>
    <trkpt lat="47.8701560944319" lon="8.08833514340222">
    <ele>1004</ele>
    <time>1989-12-31T01:20:07Z</time>
    </trkpt>
    <trkpt lat="47.8610753919929" lon="8.06793342344463">
    <ele>1067</ele>
    <time>1989-12-31T01:22:19Z</time>
    </trkpt>
    <trkpt lat="47.8596259094775" lon="8.06612653657794">
    <ele>1086</ele>
    <time>1989-12-31T01:22:34Z</time>
    </trkpt>
    <trkpt lat="47.8596639633179" lon="8.06272029876709">
    <ele>1103</ele>
    <time>1989-12-31T01:22:53Z</time>
    </trkpt>
    <trkpt lat="47.8602591622621" lon="8.06196995079517">
    <ele>1113</ele>
    <time>1989-12-31T01:22:59Z</time>
    </trkpt>
    <trkpt lat="47.8630055766553" lon="8.06122966110706">
    <ele>1136</ele>
    <time>1989-12-31T01:23:21Z</time>
    </trkpt>
    <trkpt lat="47.8635692596436" lon="8.05862213484943">
    <ele>1157</ele>
    <time>1989-12-31T01:23:36Z</time>
    </trkpt>
    <trkpt lat="47.8633639868349" lon="8.05727943778038">
    <ele>1171</ele>
    <time>1989-12-31T01:23:43Z</time>
    </trkpt>
    <trkpt lat="47.8585968632251" lon="8.05276963859797">
    <ele>1223</ele>
    <time>1989-12-31T01:24:29Z</time>
    </trkpt>
    <trkpt lat="47.8580042626709" lon="8.05173304863274">
    <ele>1225</ele>
    <time>1989-12-31T01:24:36Z</time>
    </trkpt>
    <trkpt lat="47.856644" lon="8.043663">
    <ele>1232</ele>
    <time>1989-12-31T01:25:21Z</time>
    </trkpt>
    <trkpt lat="47.856301" lon="8.042461">
    <ele>1234</ele>
    <time>1989-12-31T01:25:28Z</time>
    </trkpt>
    <trkpt lat="47.856029" lon="8.041134">
    <ele>1247</ele>
    <time>1989-12-31T01:25:35Z</time>
    </trkpt>
    <trkpt lat="47.8560829628259" lon="8.04016602225602">
    <ele>1233</ele>
    <time>1989-12-31T01:25:41Z</time>
    </trkpt>
    <trkpt lat="47.8564649261534" lon="8.03738582879305">
    <ele>1234</ele>
    <time>1989-12-31T01:25:56Z</time>
    </trkpt>
    <trkpt lat="47.8558444976807" lon="8.03455643355846">
    <ele>1234</ele>
    <time>1989-12-31T01:26:12Z</time>
    </trkpt>
    <trkpt lat="47.8597927093506" lon="8.01280975341797">
    <ele>1169</ele>
    <time>1989-12-31T01:28:13Z</time>
    </trkpt>
    <trkpt lat="47.8614234924316" lon="8.01255226135254">
    <ele>1155</ele>
    <time>1989-12-31T01:28:26Z</time>
    </trkpt>
    <trkpt lat="47.8617079742253" lon="8.01108777523041">
    <ele>1151</ele>
    <time>1989-12-31T01:28:35Z</time>
    </trkpt>
    <trkpt lat="47.8615207225084" lon="8.00690679810941">
    <ele>1110</ele>
    <time>1989-12-31T01:28:57Z</time>
    </trkpt>
    <trkpt lat="47.8597587626427" lon="8.00650622695684">
    <ele>1076</ele>
    <time>1989-12-31T01:29:11Z</time>
    </trkpt>
    <trkpt lat="47.8592603746802" lon="8.00533971749246">
    <ele>1068</ele>
    <time>1989-12-31T01:29:19Z</time>
    </trkpt>
    <trkpt lat="47.858652099967" lon="8.0011035874486">
    <ele>1037</ele>
    <time>1989-12-31T01:29:42Z</time>
    </trkpt>
    <trkpt lat="47.858890062198" lon="7.99827486276627">
    <ele>1013</ele>
    <time>1989-12-31T01:29:58Z</time>
    </trkpt>
    <trkpt lat="47.8586339950562" lon="7.9974889755249">
    <ele>1004</ele>
    <time>1989-12-31T01:30:02Z</time>
    </trkpt>
    <trkpt lat="47.8578186035156" lon="8.00624370574951">
    <ele>949</ele>
    <time>1989-12-31T01:30:50Z</time>
    </trkpt>
    <trkpt lat="47.8570873662829" lon="8.00668350420892">
    <ele>941</ele>
    <time>1989-12-31T01:30:56Z</time>
    </trkpt>
    <trkpt lat="47.8500558715314" lon="7.99205213785172">
    <ele>838</ele>
    <time>1989-12-31T01:32:33Z</time>
    </trkpt>
    <trkpt lat="47.8485151939094" lon="7.99082075245678">
    <ele>833</ele>
    <time>1989-12-31T01:32:47Z</time>
    </trkpt>
    <trkpt lat="47.8458007145673" lon="7.98645579256117">
    <ele>819</ele>
    <time>1989-12-31T01:33:19Z</time>
    </trkpt>
    <trkpt lat="47.8433855529875" lon="7.97525681555271">
    <ele>772</ele>
    <time>1989-12-31T01:34:23Z</time>
    </trkpt>
    <trkpt lat="47.8342151641846" lon="7.9714822769165">
    <ele>720</ele>
    <time>1989-12-31T01:35:39Z</time>
    </trkpt>
    <trkpt lat="47.8316388186067" lon="7.96680718660355">
    <ele>712</ele>
    <time>1989-12-31T01:36:11Z</time>
    </trkpt>
    <trkpt lat="47.8309106826782" lon="7.96382004395127">
    <ele>709</ele>
    <time>1989-12-31T01:36:28Z</time>
    </trkpt>
    <trkpt lat="47.8310778178275" lon="7.96223586425185">
    <ele>706</ele>
    <time>1989-12-31T01:36:37Z</time>
    </trkpt>
    <trkpt lat="47.8326958604157" lon="7.95844841748476">
    <ele>701</ele>
    <time>1989-12-31T01:37:01Z</time>
    </trkpt>
    <trkpt lat="47.8327989578247" lon="7.95723438262939">
    <ele>696</ele>
    <time>1989-12-31T01:37:08Z</time>
    </trkpt>
    <trkpt lat="47.827979195863" lon="7.94485171325505">
    <ele>643</ele>
    <time>1989-12-31T01:38:25Z</time>
    </trkpt>
    <trkpt lat="47.8276795428246" lon="7.94195023365319">
    <ele>642</ele>
    <time>1989-12-31T01:38:41Z</time>
    </trkpt>
    <trkpt lat="47.8368060104549" lon="7.93692980892956">
    <ele>700</ele>
    <time>1989-12-31T01:39:59Z</time>
    </trkpt>
    <trkpt lat="47.8377809096128" lon="7.93693911284208">
    <ele>702</ele>
    <time>1989-12-31T01:40:06Z</time>
    </trkpt>
    <trkpt lat="47.8385725803673" lon="7.93754847720265">
    <ele>707</ele>
    <time>1989-12-31T01:40:14Z</time>
    </trkpt>
    <trkpt lat="47.8394588828087" lon="7.93761670589447">
    <ele>711</ele>
    <time>1989-12-31T01:40:21Z</time>
    </trkpt>
    <trkpt lat="47.8430534619838" lon="7.92871956713498">
    <ele>784</ele>
    <time>1989-12-31T01:41:17Z</time>
    </trkpt>
    <trkpt lat="47.8423557523638" lon="7.93409102596343">
    <ele>797</ele>
    <time>1989-12-31T01:41:46Z</time>
    </trkpt>
    <trkpt lat="47.8452212736011" lon="7.92601179331541">
    <ele>798</ele>
    <time>1989-12-31T01:42:35Z</time>
    </trkpt>
    <trkpt lat="47.8515804558992" lon="7.92256674729288">
    <ele>800</ele>
    <time>1989-12-31T01:43:30Z</time>
    </trkpt>
    <trkpt lat="47.8526178002357" lon="7.92009048163891">
    <ele>800</ele>
    <time>1989-12-31T01:43:45Z</time>
    </trkpt>
    <trkpt lat="47.854107" lon="7.918065">
    <ele>800</ele>
    <time>1989-12-31T01:44:13Z</time>
    </trkpt>
    <trkpt lat="47.8563168179244" lon="7.91720107197762">
    <ele>955</ele>
    <time>1989-12-31T01:44:21Z</time>
    </trkpt>
    <trkpt lat="47.8572263382375" lon="7.91744699701667">
    <ele>959</ele>
    <time>1989-12-31T01:44:29Z</time>
    </trkpt>
    <trkpt lat="47.8580691386014" lon="7.91818871162832">
    <ele>966</ele>
    <time>1989-12-31T01:44:37Z</time>
    </trkpt>
    <trkpt lat="47.8599199466407" lon="7.91854469105601">
    <ele>986</ele>
    <time>1989-12-31T01:44:52Z</time>
    </trkpt>
    <trkpt lat="47.8608052432537" lon="7.91940182447433">
    <ele>997</ele>
    <time>1989-12-31T01:45:00Z</time>
    </trkpt>
    <trkpt lat="47.8617870993912" lon="7.91939822025597">
    <ele>1006</ele>
    <time>1989-12-31T01:45:08Z</time>
    </trkpt>
    <trkpt lat="47.8640842437744" lon="7.91689395904541">
    <ele>1026</ele>
    <time>1989-12-31T01:45:31Z</time>
    </trkpt>
    <trkpt lat="47.8672603145242" lon="7.91710442863405">
    <ele>1047</ele>
    <time>1989-12-31T01:45:56Z</time>
    </trkpt>
    <trkpt lat="47.8691421356052" lon="7.91660042479634">
    <ele>1058</ele>
    <time>1989-12-31T01:46:12Z</time>
    </trkpt>
    <trkpt lat="47.8717163857073" lon="7.91452833451331">
    <ele>1066</ele>
    <time>1989-12-31T01:46:35Z</time>
    </trkpt>
    <trkpt lat="47.8722246643156" lon="7.91323341429234">
    <ele>1068</ele>
    <time>1989-12-31T01:46:43Z</time>
    </trkpt>
    <trkpt lat="47.8731548879296" lon="7.9123268276453">
    <ele>1070</ele>
    <time>1989-12-31T01:46:52Z</time>
    </trkpt>
    <trkpt lat="47.8749248106033" lon="7.91157237254083">
    <ele>1071</ele>
    <time>1989-12-31T01:47:07Z</time>
    </trkpt>
    <trkpt lat="47.8756847977638" lon="7.91077324189246">
    <ele>1083</ele>
    <time>1989-12-31T01:47:14Z</time>
    </trkpt>
    <trkpt lat="47.8765048831701" lon="7.90842211805284">
    <ele>1103</ele>
    <time>1989-12-31T01:47:28Z</time>
    </trkpt>
    <trkpt lat="47.8914378304034" lon="7.89158103056252">
    <ele>1155</ele>
    <time>1989-12-31T01:49:58Z</time>
    </trkpt>
    <trkpt lat="47.8933571185917" lon="7.89150492288172">
    <ele>1158</ele>
    <time>1989-12-31T01:50:14Z</time>
    </trkpt>
    <trkpt lat="47.8998388443142" lon="7.88830521516502">
    <ele>1167</ele>
    <time>1989-12-31T01:51:09Z</time>
    </trkpt>
    <trkpt lat="47.9010949563235" lon="7.88662355393171">
    <ele>1172</ele>
    <time>1989-12-31T01:51:22Z</time>
    </trkpt>
    <trkpt lat="47.9020791593939" lon="7.87991719320416">
    <ele>1148</ele>
    <time>1989-12-31T01:51:59Z</time>
    </trkpt>
    <trkpt lat="47.9003047943115" lon="7.86861419677734">
    <ele>1056</ele>
    <time>1989-12-31T01:53:01Z</time>
    </trkpt>
    <trkpt lat="47.9000845178962" lon="7.86997064016759">
    <ele>1051</ele>
    <time>1989-12-31T01:53:09Z</time>
    </trkpt>
    <trkpt lat="47.8988785296679" lon="7.87187308073044">
    <ele>1038</ele>
    <time>1989-12-31T01:53:23Z</time>
    </trkpt>
    <trkpt lat="47.8997039794922" lon="7.87572666071355">
    <ele>1027</ele>
    <time>1989-12-31T01:53:45Z</time>
    </trkpt>
    <trkpt lat="47.8992404602468" lon="7.87639712914824">
    <ele>1023</ele>
    <time>1989-12-31T01:53:50Z</time>
    </trkpt>
    <trkpt lat="47.8966568224132" lon="7.87501059472561">
    <ele>1013</ele>
    <time>1989-12-31T01:54:12Z</time>
    </trkpt>
    <trkpt lat="47.8929082676768" lon="7.87530991248786">
    <ele>995</ele>
    <time>1989-12-31T01:54:42Z</time>
    </trkpt>
    <trkpt lat="47.8924221172929" lon="7.87596286274493">
    <ele>988</ele>
    <time>1989-12-31T01:54:47Z</time>
    </trkpt>
    <trkpt lat="47.8909708745778" lon="7.87278519943357">
    <ele>954</ele>
    <time>1989-12-31T01:55:08Z</time>
    </trkpt>
    <trkpt lat="47.8887402825058" lon="7.85076627507806">
    <ele>735</ele>
    <time>1989-12-31T01:57:08Z</time>
    </trkpt>
    <trkpt lat="47.8874555882066" lon="7.84906357526779">
    <ele>734</ele>
    <time>1989-12-31T01:57:22Z</time>
    </trkpt>
    <trkpt lat="47.8863431420177" lon="7.84858756698668">
    <ele>734</ele>
    <time>1989-12-31T01:57:31Z</time>
    </trkpt>
    <trkpt lat="47.8853702545166" lon="7.84874439239502">
    <ele>616</ele>
    <time>1989-12-31T01:57:39Z</time>
    </trkpt>
    <trkpt lat="47.8842973709106" lon="7.84646987915039">
    <ele>612</ele>
    <time>1989-12-31T01:57:54Z</time>
    </trkpt>
    <trkpt lat="47.8793098870665" lon="7.8451619669795">
    <ele>624</ele>
    <time>1989-12-31T01:58:34Z</time>
    </trkpt>
    <trkpt lat="47.8786260914057" lon="7.8462172485888">
    <ele>629</ele>
    <time>1989-12-31T01:58:42Z</time>
    </trkpt>
    <trkpt lat="47.877345085144" lon="7.8471565246582">
    <ele>635</ele>
    <time>1989-12-31T01:58:54Z</time>
    </trkpt>
    <trkpt lat="47.8773412294686" lon="7.84598724916577">
    <ele>639</ele>
    <time>1989-12-31T01:59:00Z</time>
    </trkpt>
    <trkpt lat="47.8765726089478" lon="7.84531116485596">
    <ele>650</ele>
    <time>1989-12-31T01:59:07Z</time>
    </trkpt>
    <trkpt lat="47.8746855910867" lon="7.84535282291472">
    <ele>666</ele>
    <time>1989-12-31T01:59:22Z</time>
    </trkpt>
    <trkpt lat="47.87342838943" lon="7.84734318964183">
    <ele>678</ele>
    <time>1989-12-31T01:59:37Z</time>
    </trkpt>
    <trkpt lat="47.8732582367957" lon="7.8486938495189">
    <ele>685</ele>
    <time>1989-12-31T01:59:44Z</time>
    </trkpt>
    <trkpt lat="47.872534878552" lon="7.84812446683645">
    <ele>691</ele>
    <time>1989-12-31T01:59:51Z</time>
    </trkpt>
    <trkpt lat="47.8718543518335" lon="7.84901035018265">
    <ele>694</ele>
    <time>1989-12-31T01:59:58Z</time>
    </trkpt>
    <trkpt lat="47.8721285238862" lon="7.85297390073538">
    <ele>704</ele>
    <time>1989-12-31T02:00:19Z</time>
    </trkpt>
    <trkpt lat="47.8690572269261" lon="7.85155668854713">
    <ele>724</ele>
    <time>1989-12-31T02:00:45Z</time>
    </trkpt>
    <trkpt lat="47.868435960263" lon="7.8504222817719">
    <ele>728</ele>
    <time>1989-12-31T02:00:53Z</time>
    </trkpt>
    <trkpt lat="47.8655986860394" lon="7.85097255371511">
    <ele>731</ele>
    <time>1989-12-31T02:01:16Z</time>
    </trkpt>
    <trkpt lat="47.8648996353149" lon="7.85161972045898">
    <ele>733</ele>
    <time>1989-12-31T02:01:23Z</time>
    </trkpt>
    <trkpt lat="47.8655194770545" lon="7.85522771067917">
    <ele>752</ele>
    <time>1989-12-31T02:01:43Z</time>
    </trkpt>
    <trkpt lat="47.8661870956421" lon="7.85628701560199">
    <ele>758</ele>
    <time>1989-12-31T02:01:50Z</time>
    </trkpt>
    <trkpt lat="47.8652211651206" lon="7.85652413964272">
    <ele>763</ele>
    <time>1989-12-31T02:01:58Z</time>
    </trkpt>
    <trkpt lat="47.8624012414366" lon="7.85494029521942">
    <ele>771</ele>
    <time>1989-12-31T02:02:22Z</time>
    </trkpt>
    <trkpt lat="47.8614343889058" lon="7.85541328601539">
    <ele>775</ele>
    <time>1989-12-31T02:02:31Z</time>
    </trkpt>
    <trkpt lat="47.861162815243" lon="7.8540794737637">
    <ele>786</ele>
    <time>1989-12-31T02:02:38Z</time>
    </trkpt>
    <trkpt lat="47.8601864073426" lon="7.853570189327">
    <ele>792</ele>
    <time>1989-12-31T02:02:46Z</time>
    </trkpt>
    <trkpt lat="47.8525823447853" lon="7.85598501563072">
    <ele>880</ele>
    <time>1989-12-31T02:03:49Z</time>
    </trkpt>
    <trkpt lat="47.8518780134618" lon="7.8556167986244">
    <ele>884</ele>
    <time>1989-12-31T02:03:55Z</time>
    </trkpt>
    <trkpt lat="47.8510946407914" lon="7.85633764229715">
    <ele>888</ele>
    <time>1989-12-31T02:04:02Z</time>
    </trkpt>
    <trkpt lat="47.8494149912149" lon="7.861213311553">
    <ele>904</ele>
    <time>1989-12-31T02:04:32Z</time>
    </trkpt>
    <trkpt lat="47.8500751499087" lon="7.86055013537407">
    <ele>909</ele>
    <time>1989-12-31T02:04:38Z</time>
    </trkpt>
    <trkpt lat="47.8511270787567" lon="7.85799943841994">
    <ele>919</ele>
    <time>1989-12-31T02:04:54Z</time>
    </trkpt>
    <trkpt lat="47.8527540061623" lon="7.86059682257473">
    <ele>945</ele>
    <time>1989-12-31T02:05:13Z</time>
    </trkpt>
    <trkpt lat="47.8533963114023" lon="7.86063915118575">
    <ele>951</ele>
    <time>1989-12-31T02:05:18Z</time>
    </trkpt>
    <trkpt lat="47.8515912685543" lon="7.8601360693574">
    <ele>965</ele>
    <time>1989-12-31T02:05:33Z</time>
    </trkpt>
    <trkpt lat="47.8512572497129" lon="7.86126662045717">
    <ele>972</ele>
    <time>1989-12-31T02:05:40Z</time>
    </trkpt>
    <trkpt lat="47.8520663548261" lon="7.86529588513076">
    <ele>986</ele>
    <time>1989-12-31T02:06:02Z</time>
    </trkpt>
    <trkpt lat="47.8515485208482" lon="7.8658536169678">
    <ele>993</ele>
    <time>1989-12-31T02:06:07Z</time>
    </trkpt>
    <trkpt lat="47.8507448639721" lon="7.86529152654111">
    <ele>1001</ele>
    <time>1989-12-31T02:06:15Z</time>
    </trkpt>
    <trkpt lat="47.8422923851758" lon="7.86710243672132">
    <ele>1048</ele>
    <time>1989-12-31T02:07:23Z</time>
    </trkpt>
    <trkpt lat="47.8415259439498" lon="7.86623767577112">
    <ele>1055</ele>
    <time>1989-12-31T02:07:31Z</time>
    </trkpt>
    <trkpt lat="47.8404753562063" lon="7.86375369876623">
    <ele>1068</ele>
    <time>1989-12-31T02:07:46Z</time>
    </trkpt>
    <trkpt lat="47.8396509122103" lon="7.86356594413519">
    <ele>1072</ele>
    <time>1989-12-31T02:07:53Z</time>
    </trkpt>
    <trkpt lat="47.8386436589062" lon="7.86431034095585">
    <ele>1076</ele>
    <time>1989-12-31T02:08:02Z</time>
    </trkpt>
    <trkpt lat="47.8377342224121" lon="7.86436557769775">
    <ele>1082</ele>
    <time>1989-12-31T02:08:09Z</time>
    </trkpt>
    <trkpt lat="47.8373509179801" lon="7.86721249110997">
    <ele>1092</ele>
    <time>1989-12-31T02:08:25Z</time>
    </trkpt>
    <trkpt lat="47.8368579782546" lon="7.86851118318737">
    <ele>1094</ele>
    <time>1989-12-31T02:08:33Z</time>
    </trkpt>
    <trkpt lat="47.8359118290246" lon="7.86891175433993">
    <ele>1097</ele>
    <time>1989-12-31T02:08:41Z</time>
    </trkpt>
    <trkpt lat="47.8339525591582" lon="7.86856767721474">
    <ele>1103</ele>
    <time>1989-12-31T02:08:57Z</time>
    </trkpt>
    <trkpt lat="47.8326753247529" lon="7.86929195746779">
    <ele>1112</ele>
    <time>1989-12-31T02:09:08Z</time>
    </trkpt>
    <trkpt lat="47.8319529723376" lon="7.86913136020303">
    <ele>1116</ele>
    <time>1989-12-31T02:09:14Z</time>
    </trkpt>
    <trkpt lat="47.8314455319196" lon="7.86784046329558">
    <ele>1121</ele>
    <time>1989-12-31T02:09:22Z</time>
    </trkpt>
    <trkpt lat="47.8309053182602" lon="7.86336804740131">
    <ele>1139</ele>
    <time>1989-12-31T02:09:46Z</time>
    </trkpt>
    <trkpt lat="47.8295585140586" lon="7.86227580159903">
    <ele>1145</ele>
    <time>1989-12-31T02:09:58Z</time>
    </trkpt>
    <trkpt lat="47.8294377308339" lon="7.85944699309766">
    <ele>1159</ele>
    <time>1989-12-31T02:10:14Z</time>
    </trkpt>
    <trkpt lat="47.8339431714267" lon="7.85413831472397">
    <ele>1155</ele>
    <time>1989-12-31T02:11:00Z</time>
    </trkpt>
    <trkpt lat="47.8339590970427" lon="7.8526480961591">
    <ele>1148</ele>
    <time>1989-12-31T02:11:08Z</time>
    </trkpt>
    <trkpt lat="47.8296505473554" lon="7.85228759050369">
    <ele>1123</ele>
    <time>1989-12-31T02:11:42Z</time>
    </trkpt>
    <trkpt lat="47.8291813284159" lon="7.85104832611978">
    <ele>1120</ele>
    <time>1989-12-31T02:11:50Z</time>
    </trkpt>
    <trkpt lat="47.8291056398302" lon="7.84958727657795">
    <ele>1118</ele>
    <time>1989-12-31T02:11:58Z</time>
    </trkpt>
    <trkpt lat="47.8283456526697" lon="7.84954578615725">
    <ele>1110</ele>
    <time>1989-12-31T02:12:04Z</time>
    </trkpt>
    <trkpt lat="47.8256421536207" lon="7.85348134115338">
    <ele>1075</ele>
    <time>1989-12-31T02:12:34Z</time>
    </trkpt>
    <trkpt lat="47.823316" lon="7.854384">
    <ele>1053</ele>
    <time>1989-12-31T02:12:53Z</time>
    </trkpt>
    <trkpt lat="47.822665" lon="7.85484">
    <ele>1061</ele>
    <time>1989-12-31T02:12:59Z</time>
    </trkpt>
    <trkpt lat="47.822227" lon="7.854925">
    <ele>1068</ele>
    <time>1989-12-31T02:13:03Z</time>
    </trkpt>
    <trkpt lat="47.821363" lon="7.854502">
    <ele>1072</ele>
    <time>1989-12-31T02:13:10Z</time>
    </trkpt>
    <trkpt lat="47.819837" lon="7.853741">
    <ele>1080</ele>
    <time>1989-12-31T02:13:23Z</time>
    </trkpt>
    <trkpt lat="47.8176705446094" lon="7.86326830275357">
    <ele>986</ele>
    <time>1989-12-31T02:14:17Z</time>
    </trkpt>
    <trkpt lat="47.8115621488541" lon="7.87188406102359">
    <ele>921</ele>
    <time>1989-12-31T02:15:25Z</time>
    </trkpt>
    <trkpt lat="47.8095388412476" lon="7.87947177886963">
    <ele>880</ele>
    <time>1989-12-31T02:16:09Z</time>
    </trkpt>
    <trkpt lat="47.8086187597364" lon="7.88057659752667">
    <ele>779</ele>
    <time>1989-12-31T02:16:18Z</time>
    </trkpt>
    <trkpt lat="47.8090560436249" lon="7.88155895657837">
    <ele>772</ele>
    <time>1989-12-31T02:16:24Z</time>
    </trkpt>
    <trkpt lat="47.8114700317383" lon="7.87681102752686">
    <ele>755</ele>
    <time>1989-12-31T02:16:57Z</time>
    </trkpt>
    <trkpt lat="47.8120124246925" lon="7.87756523117423">
    <ele>748</ele>
    <time>1989-12-31T02:17:02Z</time>
    </trkpt>
    <trkpt lat="47.812111498788" lon="7.87905134260654">
    <ele>739</ele>
    <time>1989-12-31T02:17:11Z</time>
    </trkpt>
    <trkpt lat="47.8098977543414" lon="7.8838371578604">
    <ele>727</ele>
    <time>1989-12-31T02:17:42Z</time>
    </trkpt>
    <trkpt lat="47.8089761640877" lon="7.88424275815487">
    <ele>721</ele>
    <time>1989-12-31T02:17:50Z</time>
    </trkpt>
    <trkpt lat="47.8066674526781" lon="7.88890737108886">
    <ele>674</ele>
    <time>1989-12-31T02:18:21Z</time>
    </trkpt>
    <trkpt lat="47.8041082900018" lon="7.89076689630747">
    <ele>643</ele>
    <time>1989-12-31T02:18:44Z</time>
    </trkpt>
    <trkpt lat="47.8033315390348" lon="7.89474327117205">
    <ele>617</ele>
    <time>1989-12-31T02:19:06Z</time>
    </trkpt>
    <trkpt lat="47.8027512598783" lon="7.8957561403513">
    <ele>611</ele>
    <time>1989-12-31T02:19:13Z</time>
    </trkpt>
    <trkpt lat="47.8021123912185" lon="7.89829853922129">
    <ele>600</ele>
    <time>1989-12-31T02:19:28Z</time>
    </trkpt>
    <trkpt lat="47.8006928320974" lon="7.90010022930801">
    <ele>589</ele>
    <time>1989-12-31T02:19:43Z</time>
    </trkpt>
    <trkpt lat="47.7985950093716" lon="7.90520430542529">
    <ele>556</ele>
    <time>1989-12-31T02:20:15Z</time>
    </trkpt>
    <trkpt lat="47.7924922294915" lon="7.90130630135536">
    <ele>542</ele>
    <time>1989-12-31T02:21:08Z</time>
    </trkpt>
    <trkpt lat="47.7841274254024" lon="7.89265735074878">
    <ele>535</ele>
    <time>1989-12-31T02:22:30Z</time>
    </trkpt>
    <trkpt lat="47.7822601888329" lon="7.89298240095377">
    <ele>532</ele>
    <time>1989-12-31T02:22:45Z</time>
    </trkpt>
    <trkpt lat="47.7804903499782" lon="7.89430322125554">
    <ele>528</ele>
    <time>1989-12-31T02:23:01Z</time>
    </trkpt>
    <trkpt lat="47.7795690950006" lon="7.89433817379177">
    <ele>528</ele>
    <time>1989-12-31T02:23:08Z</time>
    </trkpt>
    <trkpt lat="47.7745151426643" lon="7.88997061550617">
    <ele>524</ele>
    <time>1989-12-31T02:23:55Z</time>
    </trkpt>
    <trkpt lat="47.7732318732888" lon="7.88802534341812">
    <ele>521</ele>
    <time>1989-12-31T02:24:09Z</time>
    </trkpt>
    <trkpt lat="47.7735058777034" lon="7.88377144373953">
    <ele>524</ele>
    <time>1989-12-31T02:24:33Z</time>
    </trkpt>
    <trkpt lat="47.7727569546551" lon="7.88116743788123">
    <ele>529</ele>
    <time>1989-12-31T02:24:48Z</time>
    </trkpt>
    <trkpt lat="47.7729877084494" lon="7.87994099780917">
    <ele>531</ele>
    <time>1989-12-31T02:24:55Z</time>
    </trkpt>
    <trkpt lat="47.7774435281754" lon="7.8741098754108">
    <ele>546</ele>
    <time>1989-12-31T02:25:42Z</time>
    </trkpt>
    <trkpt lat="47.7778907865286" lon="7.8727073315531">
    <ele>553</ele>
    <time>1989-12-31T02:25:51Z</time>
    </trkpt>
    <trkpt lat="47.777825826779" lon="7.87140159867704">
    <ele>562</ele>
    <time>1989-12-31T02:25:58Z</time>
    </trkpt>
    <trkpt lat="47.7787792682648" lon="7.86899917759001">
    <ele>569</ele>
    <time>1989-12-31T02:26:13Z</time>
    </trkpt>
    <trkpt lat="47.7806728240103" lon="7.86787399090827">
    <ele>570</ele>
    <time>1989-12-31T02:26:29Z</time>
    </trkpt>
    <trkpt lat="47.7811865508556" lon="7.86658007651567">
    <ele>571</ele>
    <time>1989-12-31T02:26:37Z</time>
    </trkpt>
    <trkpt lat="47.7811903227121" lon="7.86516923457384">
    <ele>574</ele>
    <time>1989-12-31T02:26:45Z</time>
    </trkpt>
    <trkpt lat="47.7818010281771" lon="7.8625307790935">
    <ele>576</ele>
    <time>1989-12-31T02:27:00Z</time>
    </trkpt>
    <trkpt lat="47.7850738260895" lon="7.85660686902702">
    <ele>603</ele>
    <time>1989-12-31T02:27:41Z</time>
    </trkpt>
    <trkpt lat="47.789256060496" lon="7.85472001880407">
    <ele>610</ele>
    <time>1989-12-31T02:28:16Z</time>
    </trkpt>
    <trkpt lat="47.7897256985307" lon="7.85363154485822">
    <ele>612</ele>
    <time>1989-12-31T02:28:23Z</time>
    </trkpt>
    <trkpt lat="47.7920293807983" lon="7.85161972045898">
    <ele>626</ele>
    <time>1989-12-31T02:28:45Z</time>
    </trkpt>
    <trkpt lat="47.793101593852" lon="7.8491048142314">
    <ele>644</ele>
    <time>1989-12-31T02:29:01Z</time>
    </trkpt>
    <trkpt lat="47.7933574095368" lon="7.84763454459608">
    <ele>650</ele>
    <time>1989-12-31T02:29:09Z</time>
    </trkpt>
    <trkpt lat="47.7941174805164" lon="7.84667858853936">
    <ele>658</ele>
    <time>1989-12-31T02:29:17Z</time>
    </trkpt>
    <trkpt lat="47.7951408270746" lon="7.84659409895539">
    <ele>661</ele>
    <time>1989-12-31T02:29:25Z</time>
    </trkpt>
    <trkpt lat="47.797245355323" lon="7.84396084025502">
    <ele>675</ele>
    <time>1989-12-31T02:29:47Z</time>
    </trkpt>
    <trkpt lat="47.7983755711466" lon="7.84153981134295">
    <ele>691</ele>
    <time>1989-12-31T02:30:03Z</time>
    </trkpt>
    <trkpt lat="47.8012681659311" lon="7.84029266797006">
    <ele>730</ele>
    <time>1989-12-31T02:30:27Z</time>
    </trkpt>
    <trkpt lat="47.8019491955638" lon="7.83917603082955">
    <ele>744</ele>
    <time>1989-12-31T02:30:35Z</time>
    </trkpt>
    <trkpt lat="47.8020912688226" lon="7.83787272870541">
    <ele>754</ele>
    <time>1989-12-31T02:30:42Z</time>
    </trkpt>
    <trkpt lat="47.8011524118483" lon="7.83807288855314">
    <ele>757</ele>
    <time>1989-12-31T02:30:50Z</time>
    </trkpt>
    <trkpt lat="47.7991997636855" lon="7.83769528381526">
    <ele>765</ele>
    <time>1989-12-31T02:31:06Z</time>
    </trkpt>
    <trkpt lat="47.7967941574752" lon="7.8384171333164">
    <ele>774</ele>
    <time>1989-12-31T02:31:25Z</time>
    </trkpt>
    <trkpt lat="47.7958485949785" lon="7.83785177394748">
    <ele>784</ele>
    <time>1989-12-31T02:31:33Z</time>
    </trkpt>
    <trkpt lat="47.7955913543701" lon="7.83652449958026">
    <ele>794</ele>
    <time>1989-12-31T02:31:41Z</time>
    </trkpt>
    <trkpt lat="47.7962805144489" lon="7.83350986428559">
    <ele>796</ele>
    <time>1989-12-31T02:31:58Z</time>
    </trkpt>
    <trkpt lat="47.7968630567193" lon="7.83248509280384">
    <ele>797</ele>
    <time>1989-12-31T02:32:05Z</time>
    </trkpt>
    <trkpt lat="47.8030157089233" lon="7.82864567823708">
    <ele>784</ele>
    <time>1989-12-31T02:32:59Z</time>
    </trkpt>
    <trkpt lat="47.7963262796402" lon="7.82805760391057">
    <ele>730</ele>
    <time>1989-12-31T02:33:52Z</time>
    </trkpt>
    <trkpt lat="47.7929887734354" lon="7.8257261775434">
    <ele>733</ele>
    <time>1989-12-31T02:34:22Z</time>
    </trkpt>
    <trkpt lat="47.7899231761694" lon="7.82528042793274">
    <ele>735</ele>
    <time>1989-12-31T02:34:47Z</time>
    </trkpt>
    <trkpt lat="47.7878886368126" lon="7.82188156619668">
    <ele>748</ele>
    <time>1989-12-31T02:35:11Z</time>
    </trkpt>
    <trkpt lat="47.7950699999928" lon="7.81689609400928">
    <ele>755</ele>
    <time>1989-12-31T02:36:15Z</time>
    </trkpt>
    <trkpt lat="47.7961112838238" lon="7.81695275567472">
    <ele>844</ele>
    <time>1989-12-31T02:36:23Z</time>
    </trkpt>
    <trkpt lat="47.7988932374865" lon="7.81248704530299">
    <ele>835</ele>
    <time>1989-12-31T02:36:56Z</time>
    </trkpt>
    <trkpt lat="47.8001359384507" lon="7.80879909172654">
    <ele>836</ele>
    <time>1989-12-31T02:37:18Z</time>
    </trkpt>
    <trkpt lat="47.8036165237427" lon="7.80735623091459">
    <ele>847</ele>
    <time>1989-12-31T02:37:47Z</time>
    </trkpt>
    <trkpt lat="47.8022003173828" lon="7.80563039705157">
    <ele>853</ele>
    <time>1989-12-31T02:38:02Z</time>
    </trkpt>
    <trkpt lat="47.8032734524459" lon="7.80331338755786">
    <ele>870</ele>
    <time>1989-12-31T02:38:17Z</time>
    </trkpt>
    <trkpt lat="47.8037015162408" lon="7.79899503104389">
    <ele>893</ele>
    <time>1989-12-31T02:38:40Z</time>
    </trkpt>
    <trkpt lat="47.8045879025012" lon="7.79657308012247">
    <ele>908</ele>
    <time>1989-12-31T02:38:55Z</time>
    </trkpt>
    <trkpt lat="47.8044215217233" lon="7.79521537944674">
    <ele>915</ele>
    <time>1989-12-31T02:39:03Z</time>
    </trkpt>
    <trkpt lat="47.8036848362535" lon="7.79423654079437">
    <ele>923</ele>
    <time>1989-12-31T02:39:10Z</time>
    </trkpt>
    <trkpt lat="47.8033426869661" lon="7.79295871965587">
    <ele>929</ele>
    <time>1989-12-31T02:39:18Z</time>
    </trkpt>
    <trkpt lat="47.8057637996972" lon="7.78479742817581">
    <ele>926</ele>
    <time>1989-12-31T02:40:06Z</time>
    </trkpt>
    <trkpt lat="47.8099218942225" lon="7.77965253219008">
    <ele>827</ele>
    <time>1989-12-31T02:40:49Z</time>
    </trkpt>
    <trkpt lat="47.8098256699741" lon="7.77555294334888">
    <ele>816</ele>
    <time>1989-12-31T02:41:11Z</time>
    </trkpt>
    <trkpt lat="47.8112799301744" lon="7.78170291334391">
    <ele>786</ele>
    <time>1989-12-31T02:41:47Z</time>
    </trkpt>
    <trkpt lat="47.8105439990759" lon="7.78260036371648">
    <ele>779</ele>
    <time>1989-12-31T02:41:54Z</time>
    </trkpt>
    <trkpt lat="47.8102765325457" lon="7.78369822539389">
    <ele>773</ele>
    <time>1989-12-31T02:42:00Z</time>
    </trkpt>
    <trkpt lat="47.810681629926" lon="7.78494411148131">
    <ele>767</ele>
    <time>1989-12-31T02:42:08Z</time>
    </trkpt>
    <trkpt lat="47.809566501528" lon="7.78860750608146">
    <ele>759</ele>
    <time>1989-12-31T02:42:30Z</time>
    </trkpt>
    <trkpt lat="47.812098255381" lon="7.7855937089771">
    <ele>688</ele>
    <time>1989-12-31T02:42:56Z</time>
    </trkpt>
    <trkpt lat="47.8138378355652" lon="7.78517176397145">
    <ele>659</ele>
    <time>1989-12-31T02:43:10Z</time>
    </trkpt>
    <trkpt lat="47.8145318571478" lon="7.7841068431735">
    <ele>645</ele>
    <time>1989-12-31T02:43:18Z</time>
    </trkpt>
    <trkpt lat="47.8152125515044" lon="7.78392369858921">
    <ele>633</ele>
    <time>1989-12-31T02:43:23Z</time>
    </trkpt>
    <trkpt lat="47.8153493441641" lon="7.78526111505926">
    <ele>621</ele>
    <time>1989-12-31T02:43:31Z</time>
    </trkpt>
    <trkpt lat="47.8168223798275" lon="7.7863500919193">
    <ele>589</ele>
    <time>1989-12-31T02:43:44Z</time>
    </trkpt>
    <trkpt lat="47.8176961094141" lon="7.78636886738241">
    <ele>584</ele>
    <time>1989-12-31T02:43:51Z</time>
    </trkpt>
    <trkpt lat="47.8186296857893" lon="7.78691276907921">
    <ele>571</ele>
    <time>1989-12-31T02:43:59Z</time>
    </trkpt>
    <trkpt lat="47.8193260543048" lon="7.78773612342775">
    <ele>563</ele>
    <time>1989-12-31T02:44:06Z</time>
    </trkpt>
    <trkpt lat="47.820750894025" lon="7.79179908335209">
    <ele>552</ele>
    <time>1989-12-31T02:44:31Z</time>
    </trkpt>
    <trkpt lat="47.8220759052783" lon="7.79346691444516">
    <ele>552</ele>
    <time>1989-12-31T02:44:44Z</time>
    </trkpt>
    <trkpt lat="47.8238984663039" lon="7.79427300207317">
    <ele>552</ele>
    <time>1989-12-31T02:45:00Z</time>
    </trkpt>
    <trkpt lat="47.8265636600554" lon="7.79689259827137">
    <ele>552</ele>
    <time>1989-12-31T02:45:25Z</time>
    </trkpt>
    <trkpt lat="47.8280877415091" lon="7.79541411437094">
    <ele>544</ele>
    <time>1989-12-31T02:45:40Z</time>
    </trkpt>
    <trkpt lat="47.8320899326354" lon="7.79647350311279">
    <ele>467</ele>
    <time>1989-12-31T02:46:12Z</time>
    </trkpt>
    <trkpt lat="47.8329579625279" lon="7.79617946594954">
    <ele>459</ele>
    <time>1989-12-31T02:46:20Z</time>
    </trkpt>
    <trkpt lat="47.8344656154513" lon="7.79469603672624">
    <ele>453</ele>
    <time>1989-12-31T02:46:34Z</time>
    </trkpt>
    <trkpt lat="47.8381486237049" lon="7.79294036328793">
    <ele>435</ele>
    <time>1989-12-31T02:47:05Z</time>
    </trkpt>
    <trkpt lat="47.8416543547064" lon="7.79446226544678">
    <ele>420</ele>
    <time>1989-12-31T02:47:34Z</time>
    </trkpt>
    <trkpt lat="47.845503995195" lon="7.79452739283443">
    <ele>410</ele>
    <time>1989-12-31T02:48:05Z</time>
    </trkpt>
    <trkpt lat="47.8472563158721" lon="7.79386723414063">
    <ele>404</ele>
    <time>1989-12-31T02:48:19Z</time>
    </trkpt>
    <trkpt lat="47.848072713241" lon="7.79302426613867">
    <ele>401</ele>
    <time>1989-12-31T02:48:27Z</time>
    </trkpt>
    <trkpt lat="47.8491011727601" lon="7.79058546759188">
    <ele>395</ele>
    <time>1989-12-31T02:48:43Z</time>
    </trkpt>
    <trkpt lat="47.854272974655" lon="7.78431002050638">
    <ele>380</ele>
    <time>1989-12-31T02:49:36Z</time>
    </trkpt>
    <trkpt lat="47.854238525033" lon="7.77767146937549">
    <ele>370</ele>
    <time>1989-12-31T02:50:12Z</time>
    </trkpt>
    <trkpt lat="47.8714852966368" lon="7.73521050810814">
    <ele>307</ele>
    <time>1989-12-31T02:54:39Z</time>
    </trkpt>
    <trkpt lat="47.8754848055542" lon="7.73186621256173">
    <ele>298</ele>
    <time>1989-12-31T02:55:16Z</time>
    </trkpt>
    <trkpt lat="47.8772204462439" lon="7.73048998787999">
    <ele>294</ele>
    <time>1989-12-31T02:55:32Z</time>
    </trkpt>
    <trkpt lat="47.881766371429" lon="7.72951274178922">
    <ele>288</ele>
    <time>1989-12-31T02:56:09Z</time>
    </trkpt>
    <trkpt lat="47.8865279629827" lon="7.72522975690663">
    <ele>283</ele>
    <time>1989-12-31T02:56:53Z</time>
    </trkpt>
    <trkpt lat="47.8892623912543" lon="7.72443532012403">
    <ele>280</ele>
    <time>1989-12-31T02:57:15Z</time>
    </trkpt>
    <trkpt lat="47.8901572432369" lon="7.72454654797912">
    <ele>279</ele>
    <time>1989-12-31T02:57:23Z</time>
    </trkpt>
    <trkpt lat="47.8909656777978" lon="7.72522715851665">
    <ele>277</ele>
    <time>1989-12-31T02:57:30Z</time>
    </trkpt>
    <trkpt lat="47.9047914594412" lon="7.71485069766641">
    <ele>251</ele>
    <time>1989-12-31T02:59:34Z</time>
    </trkpt>
    <trkpt lat="47.9096760135144" lon="7.71976995281875">
    <ele>249</ele>
    <time>1989-12-31T03:00:21Z</time>
    </trkpt>
    <trkpt lat="47.9106670897454" lon="7.71998804993927">
    <ele>249</ele>
    <time>1989-12-31T03:00:29Z</time>
    </trkpt>
    <trkpt lat="47.9116656258702" lon="7.71970231086016">
    <ele>248</ele>
    <time>1989-12-31T03:00:37Z</time>
    </trkpt>
    <trkpt lat="47.9240198805928" lon="7.70801458507776">
    <ele>228</ele>
    <time>1989-12-31T03:02:35Z</time>
    </trkpt>
    <trkpt lat="47.9255846980959" lon="7.70469920709729">
    <ele>227</ele>
    <time>1989-12-31T03:02:56Z</time>
    </trkpt>
    <trkpt lat="47.9274845402688" lon="7.69207756966352">
    <ele>225</ele>
    <time>1989-12-31T03:04:06Z</time>
    </trkpt>
    <trkpt lat="47.9289037641138" lon="7.68994035199285">
    <ele>222</ele>
    <time>1989-12-31T03:04:22Z</time>
    </trkpt>
    <trkpt lat="47.9384773224592" lon="7.68394150771201">
    <ele>214</ele>
    <time>1989-12-31T03:05:45Z</time>
    </trkpt>
    <trkpt lat="47.9553922545165" lon="7.66483596526086">
    <ele>205</ele>
    <time>1989-12-31T03:08:35Z</time>
    </trkpt>
    <trkpt lat="47.9721457511187" lon="7.65352584421635">
    <ele>203</ele>
    <time>1989-12-31T03:11:03Z</time>
    </trkpt>
    <trkpt lat="48.0034824181348" lon="7.62305997312069">
    <ele>199</ele>
    <time>1989-12-31T03:16:02Z</time>
    </trkpt>
    <trkpt lat="48.0161178018898" lon="7.6111026853323">
    <ele>195</ele>
    <time>1989-12-31T03:18:02Z</time>
    </trkpt>
    <trkpt lat="48.028102" lon="7.583287">
    <ele>192</ele>
    <time>1989-12-31T03:21:00Z</time>
    </trkpt>
    <trkpt lat="48.034242" lon="7.579154">
    <ele>188</ele>
    <time>1989-12-31T03:21:54Z</time>
    </trkpt>
    <trkpt lat="48.037845" lon="7.579721">
    <ele>189</ele>
    <time>1989-12-31T03:22:23Z</time>
    </trkpt>
    <trkpt lat="48.040415" lon="7.577473">
    <ele>188</ele>
    <time>1989-12-31T03:22:46Z</time>
    </trkpt>
    <trkpt lat="48.043785" lon="7.5809">
    <ele>189</ele>
    <time>1989-12-31T03:23:19Z</time>
    </trkpt>
    <trkpt lat="48.0451983120292" lon="7.58750410750508">
    <ele>189</ele>
    <time>1989-12-31T03:23:56Z</time>
    </trkpt>
    <trkpt lat="48.073756294325" lon="7.59548434987664">
    <ele>186</ele>
    <time>1989-12-31T03:27:49Z</time>
    </trkpt>
    <trkpt lat="48.0757566355169" lon="7.5955368205905">
    <ele>186</ele>
    <time>1989-12-31T03:28:05Z</time>
    </trkpt>
    <trkpt lat="48.0796405579895" lon="7.59504899382591">
    <ele>185</ele>
    <time>1989-12-31T03:28:36Z</time>
    </trkpt>
    <trkpt lat="48.0829129368067" lon="7.59790856391191">
    <ele>185</ele>
    <time>1989-12-31T03:29:06Z</time>
    </trkpt>
    <trkpt lat="48.0838944576681" lon="7.60018668137491">
    <ele>185</ele>
    <time>1989-12-31T03:29:21Z</time>
    </trkpt>
    <trkpt lat="48.0853708460927" lon="7.60197261348367">
    <ele>186</ele>
    <time>1989-12-31T03:29:36Z</time>
    </trkpt>
    <trkpt lat="48.0856990814209" lon="7.60482296347618">
    <ele>185</ele>
    <time>1989-12-31T03:29:52Z</time>
    </trkpt>
    <trkpt lat="48.0843687057495" lon="7.60876178741455">
    <ele>186</ele>
    <time>1989-12-31T03:30:15Z</time>
    </trkpt>
    <trkpt lat="48.084457218647" lon="7.61154583655298">
    <ele>189</ele>
    <time>1989-12-31T03:30:30Z</time>
    </trkpt>
    <trkpt lat="48.08663232252" lon="7.61627708561718">
    <ele>197</ele>
    <time>1989-12-31T03:31:01Z</time>
    </trkpt>
    <trkpt lat="48.0903526302427" lon="7.62098109349608">
    <ele>205</ele>
    <time>1989-12-31T03:31:40Z</time>
    </trkpt>
    <trkpt lat="48.0904599186033" lon="7.62393596582115">
    <ele>210</ele>
    <time>1989-12-31T03:31:56Z</time>
    </trkpt>
    <trkpt lat="48.0898455251008" lon="7.62807687744498">
    <ele>215</ele>
    <time>1989-12-31T03:32:19Z</time>
    </trkpt>
    <trkpt lat="48.0890893936157" lon="7.62974739074707">
    <ele>216</ele>
    <time>1989-12-31T03:32:30Z</time>
    </trkpt>
    <trkpt lat="48.0888294707984" lon="7.63162879273295">
    <ele>217</ele>
    <time>1989-12-31T03:32:40Z</time>
    </trkpt>
    <trkpt lat="48.0894418526441" lon="7.63558823615313">
    <ele>215</ele>
    <time>1989-12-31T03:33:02Z</time>
    </trkpt>
    <trkpt lat="48.0890411976725" lon="7.6382265239954">
    <ele>216</ele>
    <time>1989-12-31T03:33:16Z</time>
    </trkpt>
    <trkpt lat="48.0891568679363" lon="7.63964222744107">
    <ele>218</ele>
    <time>1989-12-31T03:33:24Z</time>
    </trkpt>
    <trkpt lat="48.0887889862061" lon="7.64096044935286">
    <ele>222</ele>
    <time>1989-12-31T03:33:31Z</time>
    </trkpt>
    <trkpt lat="48.0895928945392" lon="7.643669731915">
    <ele>229</ele>
    <time>1989-12-31T03:33:47Z</time>
    </trkpt>
    <trkpt lat="48.0941905360669" lon="7.65137420967221">
    <ele>244</ele>
    <time>1989-12-31T03:34:43Z</time>
    </trkpt>
    <trkpt lat="48.0963556654751" lon="7.66092010773718">
    <ele>256</ele>
    <time>1989-12-31T03:35:37Z</time>
    </trkpt>
    <trkpt lat="48.0962581001222" lon="7.66227344982326">
    <ele>257</ele>
    <time>1989-12-31T03:35:44Z</time>
    </trkpt>
    <trkpt lat="48.0946772731841" lon="7.66424244269729">
    <ele>262</ele>
    <time>1989-12-31T03:36:01Z</time>
    </trkpt>
    <trkpt lat="48.0924341920763" lon="7.66900353133678">
    <ele>276</ele>
    <time>1989-12-31T03:36:32Z</time>
    </trkpt>
    <trkpt lat="48.0918337125331" lon="7.67181088216603">
    <ele>283</ele>
    <time>1989-12-31T03:36:48Z</time>
    </trkpt>
    <trkpt lat="48.0916835926473" lon="7.6763676200062">
    <ele>298</ele>
    <time>1989-12-31T03:37:12Z</time>
    </trkpt>
    <trkpt lat="48.0931065883487" lon="7.68213210627437">
    <ele>320</ele>
    <time>1989-12-31T03:37:45Z</time>
    </trkpt>
    <trkpt lat="48.0930317379534" lon="7.68348905257881">
    <ele>325</ele>
    <time>1989-12-31T03:37:52Z</time>
    </trkpt>
    <trkpt lat="48.0865964479744" lon="7.69080402329564">
    <ele>370</ele>
    <time>1989-12-31T03:38:57Z</time>
    </trkpt>
    <trkpt lat="48.0865660216659" lon="7.69369946792722">
    <ele>359</ele>
    <time>1989-12-31T03:39:13Z</time>
    </trkpt>
    <trkpt lat="48.0860141571611" lon="7.69497452303767">
    <ele>347</ele>
    <time>1989-12-31T03:39:21Z</time>
    </trkpt>
    <trkpt lat="48.0812238994986" lon="7.6973647903651">
    <ele>311</ele>
    <time>1989-12-31T03:40:01Z</time>
    </trkpt>
    <trkpt lat="48.0803825240582" lon="7.698342371732">
    <ele>301</ele>
    <time>1989-12-31T03:40:10Z</time>
    </trkpt>
    <trkpt lat="48.078309930861" lon="7.70262544043362">
    <ele>279</ele>
    <time>1989-12-31T03:40:38Z</time>
    </trkpt>
    <trkpt lat="48.0744552612305" lon="7.70640643313527">
    <ele>254</ele>
    <time>1989-12-31T03:41:15Z</time>
    </trkpt>
    <trkpt lat="48.0732085369527" lon="7.71607118658721">
    <ele>232</ele>
    <time>1989-12-31T03:42:08Z</time>
    </trkpt>
    <trkpt lat="48.0719673447311" lon="7.71811192855239">
    <ele>220</ele>
    <time>1989-12-31T03:42:23Z</time>
    </trkpt>
    <trkpt lat="48.0723112542182" lon="7.72003264166415">
    <ele>208</ele>
    <time>1989-12-31T03:42:33Z</time>
    </trkpt>
    <trkpt lat="48.0766642279923" lon="7.72516848519444">
    <ele>198</ele>
    <time>1989-12-31T03:43:18Z</time>
    </trkpt>
    <trkpt lat="48.0769218876958" lon="7.72606761194766">
    <ele>196</ele>
    <time>1989-12-31T03:43:23Z</time>
    </trkpt>
    <trkpt lat="48.0766275990754" lon="7.72744827903807">
    <ele>195</ele>
    <time>1989-12-31T03:43:31Z</time>
    </trkpt>
    <trkpt lat="48.0769926309586" lon="7.72874487563968">
    <ele>193</ele>
    <time>1989-12-31T03:43:38Z</time>
    </trkpt>
    <trkpt lat="48.0768813192844" lon="7.73007919080555">
    <ele>193</ele>
    <time>1989-12-31T03:43:45Z</time>
    </trkpt>
    <trkpt lat="48.0689918529242" lon="7.74888097308576">
    <ele>191</ele>
    <time>1989-12-31T03:45:44Z</time>
    </trkpt>
    <trkpt lat="48.0686969775707" lon="7.75056498125196">
    <ele>191</ele>
    <time>1989-12-31T03:45:54Z</time>
    </trkpt>
    <trkpt lat="48.0687980633229" lon="7.75401966646314">
    <ele>192</ele>
    <time>1989-12-31T03:46:12Z</time>
    </trkpt>
    <trkpt lat="48.0706010106951" lon="7.76404190808535">
    <ele>191</ele>
    <time>1989-12-31T03:47:08Z</time>
    </trkpt>
    <trkpt lat="48.0703355558217" lon="7.76548711583018">
    <ele>191</ele>
    <time>1989-12-31T03:47:16Z</time>
    </trkpt>
    <trkpt lat="48.0692975409329" lon="7.76793748140335">
    <ele>191</ele>
    <time>1989-12-31T03:47:32Z</time>
    </trkpt>
    <trkpt lat="48.068430852145" lon="7.77198988012969">
    <ele>192</ele>
    <time>1989-12-31T03:47:54Z</time>
    </trkpt>
    <trkpt lat="48.0645845644176" lon="7.77883554808795">
    <ele>196</ele>
    <time>1989-12-31T03:48:42Z</time>
    </trkpt>
    <trkpt lat="48.06381653063" lon="7.77954281307757">
    <ele>197</ele>
    <time>1989-12-31T03:48:50Z</time>
    </trkpt>
    <trkpt lat="48.0636234954" lon="7.78470044955611">
    <ele>199</ele>
    <time>1989-12-31T03:49:17Z</time>
    </trkpt>
    <trkpt lat="48.066054917872" lon="7.79433812946081">
    <ele>218</ele>
    <time>1989-12-31T03:50:13Z</time>
    </trkpt>
    <trkpt lat="48.0672954395413" lon="7.7963939588517">
    <ele>214</ele>
    <time>1989-12-31T03:50:27Z</time>
    </trkpt>
    <trkpt lat="48.0689372029155" lon="7.79779826290905">
    <ele>204</ele>
    <time>1989-12-31T03:50:43Z</time>
    </trkpt>
    <trkpt lat="48.0693258717656" lon="7.79853964224458">
    <ele>200</ele>
    <time>1989-12-31T03:50:48Z</time>
    </trkpt>
    <trkpt lat="48.0610537715256" lon="7.80400942079723">
    <ele>206</ele>
    <time>1989-12-31T03:52:00Z</time>
    </trkpt>
    <trkpt lat="48.0604252964258" lon="7.8052387945354">
    <ele>204</ele>
    <time>1989-12-31T03:52:08Z</time>
    </trkpt>
    <trkpt lat="48.0613521672785" lon="7.80931047163904">
    <ele>209</ele>
    <time>1989-12-31T03:52:31Z</time>
    </trkpt>
  </trkseg>
</trk>
<extensions>
</extensions>
</gpx>
